createdAt,value
2023-05-09T00:00:11.089Z,12.18
2023-05-09T00:02:38.763Z,11.50
2023-05-09T00:05:07.820Z,12.63
2023-05-09T00:07:35.504Z,12.80
2023-05-09T00:10:03.301Z,12.68
2023-05-09T00:12:32.483Z,13.07
2023-05-09T00:14:59.996Z,13.15
2023-05-09T00:17:31.243Z,11.88
2023-05-09T00:20:01.599Z,13.18
2023-05-09T00:22:29.149Z,12.52
2023-05-09T00:24:56.704Z,12.77
2023-05-09T00:27:24.306Z,12.73
2023-05-09T00:29:54.884Z,12.35
2023-05-09T00:32:23.028Z,11.50
2023-05-09T00:34:51.345Z,13.85
2023-05-09T00:37:19.279Z,13.15
2023-05-09T00:39:48.335Z,14.30
2023-05-09T00:42:17.429Z,14.15
2023-05-09T00:44:44.903Z,13.63
2023-05-09T00:47:13.781Z,14.10
2023-05-09T00:49:50.349Z,13.70
2023-05-09T00:52:21.459Z,13.95
2023-05-09T00:54:49.008Z,13.30
2023-05-09T00:57:16.629Z,13.68
2023-05-09T00:59:44.233Z,12.60
2023-05-09T01:02:12.632Z,12.85
2023-05-09T01:04:41.800Z,13.63
2023-05-09T01:07:13.203Z,13.75
2023-05-09T01:09:44.707Z,14.13
2023-05-09T01:12:15.205Z,14.43
2023-05-09T01:14:47.795Z,14.45
2023-05-09T01:17:24.864Z,15.05
2023-05-09T01:19:58.393Z,14.75
2023-05-09T01:22:27.962Z,15.55
2023-05-09T01:25:09.426Z,15.15
2023-05-09T01:27:45.224Z,15.60
2023-05-09T01:30:15.011Z,14.77
2023-05-09T01:32:44.734Z,15.15
2023-05-09T01:35:15.060Z,15.88
2023-05-09T01:37:44.093Z,15.48
2023-05-09T01:40:14.371Z,15.55
2023-05-09T01:42:46.187Z,15.80
2023-05-09T01:45:15.684Z,16.20
2023-05-09T01:47:44.219Z,16.30
2023-05-09T01:50:12.588Z,17.35
2023-05-09T01:52:41.099Z,16.50
2023-05-09T01:55:10.032Z,15.90
2023-05-09T01:57:38.437Z,16.38
2023-05-09T02:00:11.032Z,15.75
2023-05-09T02:02:40.230Z,16.80
2023-05-09T02:05:09.995Z,16.27
2023-05-09T02:07:38.479Z,16.05
2023-05-09T02:10:09.231Z,16.25
2023-05-09T02:12:37.249Z,15.80
2023-05-09T02:15:05.403Z,17.13
2023-05-09T02:17:33.094Z,16.58
2023-05-09T02:20:02.027Z,16.30
2023-05-09T02:22:29.578Z,17.35
2023-05-09T02:24:57.691Z,16.75
2023-05-09T02:27:25.991Z,17.08
2023-05-09T02:29:58.319Z,18.02
2023-05-09T02:32:29.223Z,16.98
2023-05-09T02:34:56.976Z,16.48
2023-05-09T02:37:26.672Z,16.48
2023-05-09T02:39:54.340Z,16.15
2023-05-09T02:42:22.885Z,15.38
2023-05-09T02:44:50.470Z,15.40
2023-05-09T02:47:20.710Z,16.23
2023-05-09T02:49:48.243Z,14.30
2023-05-09T02:52:15.812Z,14.07
2023-05-09T02:54:44.796Z,14.40
2023-05-09T02:57:12.760Z,13.27
2023-05-09T02:59:40.289Z,14.32
2023-05-09T03:02:07.998Z,13.82
2023-05-09T03:04:35.893Z,14.93
2023-05-09T03:07:03.599Z,13.98
2023-05-09T03:09:33.736Z,15.07
2023-05-09T03:12:02.685Z,15.52
2023-05-09T03:14:30.329Z,15.23
2023-05-09T03:17:02.242Z,15.40
2023-05-09T03:19:29.763Z,16.20
2023-05-09T03:21:58.255Z,16.25
2023-05-09T03:24:31.393Z,16.67
2023-05-09T03:26:58.963Z,16.45
2023-05-09T03:29:30.020Z,16.27
2023-05-09T03:31:57.558Z,16.55
2023-05-09T03:34:25.273Z,16.20
2023-05-09T03:36:53.261Z,15.70
2023-05-09T03:39:20.774Z,15.95
2023-05-09T03:41:49.176Z,14.90
2023-05-09T03:44:17.321Z,15.63
2023-05-09T03:46:46.305Z,15.98
2023-05-09T03:49:16.857Z,14.73
2023-05-09T03:51:47.363Z,14.85
2023-05-09T03:54:14.892Z,16.80
2023-05-09T03:56:48.072Z,14.55
2023-05-09T03:59:15.647Z,14.88
2023-05-09T04:01:47.438Z,16.30
2023-05-09T04:04:16.448Z,17.75
2023-05-09T04:06:44.037Z,16.02
2023-05-09T04:09:11.746Z,15.48
2023-05-09T04:11:42.100Z,15.23
2023-05-09T04:14:09.994Z,15.98
2023-05-09T04:16:45.150Z,15.27
2023-05-09T04:19:12.636Z,16.63
2023-05-09T04:21:44.313Z,15.05
2023-05-09T04:24:11.892Z,15.82
2023-05-09T04:26:39.780Z,15.43
2023-05-09T04:29:07.308Z,15.00
2023-05-09T04:31:38.292Z,16.02
2023-05-09T04:34:06.508Z,14.85
2023-05-09T04:36:34.636Z,14.70
2023-05-09T04:39:05.631Z,15.80
2023-05-09T04:41:33.470Z,16.02
2023-05-09T04:44:03.278Z,15.73
2023-05-09T04:46:31.199Z,15.63
2023-05-09T04:49:04.605Z,14.07
2023-05-09T04:51:32.888Z,15.18
2023-05-09T04:54:00.877Z,14.20
2023-05-09T04:56:33.140Z,15.10
2023-05-09T04:59:03.724Z,14.48
2023-05-09T05:01:31.611Z,13.77
2023-05-09T05:03:59.271Z,15.55
2023-05-09T05:06:29.955Z,14.88
2023-05-09T05:08:57.764Z,13.80
2023-05-09T05:11:25.537Z,14.50
2023-05-09T05:13:54.746Z,13.95
2023-05-09T05:16:22.321Z,14.00
2023-05-09T05:18:51.930Z,14.85
2023-05-09T05:21:19.592Z,14.20
2023-05-09T05:23:47.179Z,14.20
2023-05-09T05:26:14.690Z,13.75
2023-05-09T05:28:42.316Z,14.75
2023-05-09T05:31:14.396Z,14.75
2023-05-09T05:33:41.937Z,13.85
2023-05-09T05:36:09.737Z,15.55
2023-05-09T05:38:39.631Z,14.70
2023-05-09T05:41:11.199Z,15.50
2023-05-09T05:43:43.276Z,14.43
2023-05-09T05:46:15.858Z,15.50
2023-05-09T05:48:47.306Z,15.00
2023-05-09T05:51:16.370Z,16.60
2023-05-09T05:53:52.689Z,15.23
2023-05-09T05:56:23.555Z,15.68
2023-05-09T05:58:52.380Z,16.27
2023-05-09T06:01:24.931Z,16.02
2023-05-09T06:03:58.733Z,16.90
2023-05-09T06:06:32.285Z,18.30
2023-05-09T06:09:00.268Z,16.27
2023-05-09T06:11:28.511Z,17.42
2023-05-09T06:13:56.113Z,17.25
2023-05-09T06:16:26.187Z,17.83
2023-05-09T06:18:57.597Z,17.38
2023-05-09T06:21:26.634Z,16.77
2023-05-09T06:26:26.965Z,18.98
2023-05-09T06:28:55.138Z,18.45
2023-05-09T06:31:25.402Z,18.13
2023-05-09T06:33:55.009Z,17.45
2023-05-09T06:36:24.986Z,19.58
2023-05-09T06:38:53.630Z,16.92
2023-05-09T06:41:22.259Z,18.08
2023-05-09T06:43:51.640Z,18.10
2023-05-09T06:46:21.628Z,18.10
2023-05-09T06:48:52.120Z,17.05
2023-05-09T06:51:26.731Z,17.55
2023-05-09T06:53:56.570Z,17.13
2023-05-09T06:56:27.141Z,16.75
2023-05-09T06:58:57.247Z,16.17
2023-05-09T07:01:27.640Z,16.50
2023-05-09T07:03:58.850Z,17.77
2023-05-09T07:06:26.438Z,16.63
2023-05-09T07:09:04.193Z,17.08
2023-05-09T07:11:35.412Z,16.23
2023-05-09T07:14:06.269Z,16.40
2023-05-09T07:16:36.622Z,17.23
2023-05-09T07:19:05.246Z,16.92
2023-05-09T07:21:34.361Z,15.65
2023-05-09T07:24:03.605Z,16.63
2023-05-09T07:26:35.893Z,17.08
2023-05-09T07:29:06.358Z,16.70
2023-05-09T07:31:41.562Z,17.42
2023-05-09T07:34:09.682Z,15.63
2023-05-09T07:39:12.252Z,16.42
2023-05-09T07:41:40.024Z,16.42
2023-05-09T07:44:10.029Z,15.93
2023-05-09T07:46:38.581Z,15.25
2023-05-09T07:49:06.497Z,15.38
2023-05-09T07:51:35.658Z,15.18
2023-05-09T07:54:03.283Z,14.90
2023-05-09T07:56:32.200Z,15.40
2023-05-09T07:59:02.491Z,14.20
2023-05-09T08:01:30.169Z,14.05
2023-05-09T08:03:58.171Z,15.18
2023-05-09T08:06:26.639Z,14.38
2023-05-09T08:08:54.351Z,14.23
2023-05-09T08:11:23.471Z,13.98
2023-05-09T08:13:55.547Z,13.75
2023-05-09T08:16:28.143Z,14.32
2023-05-09T08:18:56.027Z,13.55
2023-05-09T08:21:24.972Z,14.25
2023-05-09T08:24:00.636Z,14.15
2023-05-09T08:26:28.589Z,12.32
2023-05-09T08:28:57.995Z,13.70
2023-05-09T08:31:27.170Z,14.77
2023-05-09T08:33:55.385Z,11.93
2023-05-09T08:36:23.284Z,11.48
2023-05-09T08:38:51.226Z,10.32
2023-05-09T08:41:19.091Z,10.20
2023-05-09T08:43:47.163Z,11.10
2023-05-09T08:46:17.013Z,8.45
2023-05-09T08:48:48.385Z,8.35
2023-05-09T08:51:17.974Z,7.85
2023-05-09T08:53:48.833Z,7.68
2023-05-09T08:56:21.378Z,8.02
2023-05-09T08:58:49.966Z,9.20
2023-05-09T09:01:19.175Z,8.18
2023-05-09T09:03:49.579Z,8.25
2023-05-09T09:06:17.590Z,8.60
2023-05-09T09:08:45.241Z,7.70
2023-05-09T09:11:15.941Z,6.80
2023-05-09T09:13:44.950Z,5.35
2023-05-09T09:16:16.523Z,6.15
2023-05-09T09:18:46.307Z,6.85
2023-05-09T09:21:16.691Z,6.50
2023-05-09T09:23:44.865Z,6.95
2023-05-09T09:26:12.577Z,5.60
2023-05-09T09:28:40.386Z,4.32
2023-05-09T09:31:20.064Z,6.13
2023-05-09T09:33:49.200Z,5.45
2023-05-09T09:36:16.885Z,7.50
2023-05-09T09:38:44.723Z,5.72
2023-05-09T09:41:13.329Z,5.60
2023-05-09T09:43:46.431Z,5.88
2023-05-09T09:46:16.484Z,6.82
2023-05-09T09:48:51.081Z,6.45
2023-05-09T09:51:21.095Z,6.28
2023-05-09T09:53:48.698Z,6.65
2023-05-09T09:56:16.440Z,6.20
2023-05-09T09:58:44.565Z,7.00
2023-05-09T10:01:14.020Z,5.85
2023-05-09T10:03:42.419Z,5.32
2023-05-09T10:06:11.626Z,5.80
2023-05-09T10:08:41.508Z,5.60
2023-05-09T10:11:12.232Z,6.07
2023-05-09T10:13:39.920Z,6.20
2023-05-09T10:16:09.983Z,6.63
2023-05-09T10:18:38.091Z,5.55
2023-05-09T10:21:06.521Z,5.90
2023-05-09T10:23:38.101Z,5.50
2023-05-09T10:26:14.719Z,6.80
2023-05-09T10:28:44.180Z,6.35
2023-05-09T10:31:13.836Z,6.03
2023-05-09T10:33:44.120Z,6.43
2023-05-09T10:36:12.685Z,6.50
2023-05-09T10:38:40.708Z,6.47
2023-05-09T10:41:10.524Z,7.25
2023-05-09T10:43:39.213Z,6.05
2023-05-09T10:46:07.393Z,6.15
2023-05-09T10:48:35.072Z,8.32
2023-05-09T10:51:03.418Z,8.80
2023-05-09T10:53:42.616Z,8.40
2023-05-09T10:56:23.265Z,8.80
2023-05-09T10:58:52.049Z,8.32
2023-05-09T11:01:29.588Z,7.78
2023-05-09T11:03:58.415Z,7.00
2023-05-09T11:06:46.679Z,6.97
2023-05-09T11:09:34.848Z,6.88
2023-05-09T11:12:09.369Z,6.45
2023-05-09T11:14:44.724Z,5.20
2023-05-09T11:17:13.319Z,5.13
2023-05-09T11:20:05.456Z,6.40
2023-05-09T11:22:41.517Z,6.45
2023-05-09T11:25:10.039Z,6.15
2023-05-09T11:27:41.248Z,5.75
2023-05-09T11:30:09.738Z,5.03
2023-05-09T11:32:42.484Z,5.55
2023-05-09T11:35:11.479Z,6.28
2023-05-09T11:37:43.131Z,6.43
2023-05-09T11:40:13.086Z,6.13
2023-05-09T11:42:43.887Z,6.20
2023-05-09T11:45:12.262Z,5.53
2023-05-09T11:47:40.176Z,6.05
2023-05-09T11:50:09.913Z,4.95
2023-05-09T11:52:38.316Z,5.40
2023-05-09T11:55:07.373Z,5.18
2023-05-09T11:57:35.013Z,5.50
2023-05-09T12:00:06.951Z,6.10
2023-05-09T12:02:34.927Z,5.07
2023-05-09T12:05:12.141Z,5.20
2023-05-09T12:07:40.346Z,5.40
2023-05-09T12:10:08.593Z,5.45
2023-05-09T12:12:36.620Z,5.95
2023-05-09T12:15:08.105Z,5.50
2023-05-09T12:17:35.713Z,4.82
2023-05-09T12:20:05.727Z,4.43
2023-05-09T12:22:34.087Z,4.85
2023-05-09T12:25:02.699Z,4.47
2023-05-09T12:27:32.051Z,4.78
2023-05-09T12:30:00.995Z,5.20
2023-05-09T12:32:32.912Z,4.43
2023-05-09T12:35:01.534Z,4.22
2023-05-09T12:37:32.547Z,4.40
2023-05-09T12:40:04.229Z,4.55
2023-05-09T12:42:32.045Z,3.90
2023-05-09T12:44:59.641Z,4.07
2023-05-09T12:47:27.821Z,4.75
2023-05-09T12:50:05.295Z,3.97
2023-05-09T12:52:34.857Z,4.10
2023-05-09T12:55:06.566Z,4.00
2023-05-09T12:57:34.152Z,4.30
2023-05-09T13:00:02.605Z,3.70
2023-05-09T13:02:35.954Z,4.40
2023-05-09T13:05:34.697Z,3.72
2023-05-09T13:08:03.657Z,3.83
2023-05-09T13:10:35.284Z,3.88
2023-05-09T13:13:06.802Z,3.35
2023-05-09T13:15:34.896Z,4.30
2023-05-09T13:29:09.981Z,3.33
2023-05-09T13:31:37.948Z,3.15
2023-05-09T13:34:08.949Z,3.50
2023-05-09T13:36:36.460Z,3.55
2023-05-09T13:39:04.358Z,3.30
2023-05-09T13:41:34.294Z,4.00
2023-05-09T13:44:03.685Z,3.28
2023-05-09T13:46:33.337Z,3.72
2023-05-09T13:49:00.863Z,3.33
2023-05-09T13:51:29.065Z,3.50
2023-05-09T13:53:56.761Z,3.30
2023-05-09T13:56:24.315Z,3.20
2023-05-09T13:58:52.032Z,3.05
2023-05-09T14:01:20.037Z,3.05
2023-05-09T14:03:49.280Z,3.10
2023-05-09T14:06:16.896Z,3.58
2023-05-09T14:08:44.421Z,3.60
2023-05-09T14:11:11.961Z,3.08
2023-05-09T14:13:41.306Z,3.30
2023-05-09T14:16:09.560Z,3.00
2023-05-09T14:18:37.416Z,3.10
2023-05-09T14:21:07.313Z,3.20
2023-05-09T14:23:34.947Z,3.15
2023-05-09T14:26:02.992Z,3.42
2023-05-09T14:28:30.562Z,3.30
2023-05-09T14:30:58.433Z,3.55
2023-05-09T14:33:27.012Z,3.17
2023-05-09T14:35:54.786Z,3.35
2023-05-09T14:38:23.783Z,3.22
2023-05-09T14:40:51.361Z,2.97
2023-05-09T14:43:19.518Z,3.03
2023-05-09T14:45:47.839Z,3.05
2023-05-09T14:48:16.159Z,3.33
2023-05-09T14:50:46.027Z,3.17
2023-05-09T14:53:13.631Z,3.30
2023-05-09T14:55:44.900Z,3.40
2023-05-09T14:58:14.005Z,3.28
2023-05-09T15:00:41.905Z,2.88
2023-05-09T15:03:10.079Z,2.65
2023-05-09T15:05:38.882Z,3.10
2023-05-09T15:08:14.366Z,4.25
2023-05-09T15:10:43.357Z,3.97
2023-05-09T15:13:11.435Z,4.60
2023-05-09T15:15:39.600Z,3.90
2023-05-09T15:18:10.076Z,4.55
2023-05-09T15:20:37.810Z,4.05
2023-05-09T15:23:06.630Z,5.25
2023-05-09T15:25:34.796Z,5.40
2023-05-09T15:28:07.792Z,5.50
2023-05-09T15:30:38.201Z,4.70
2023-05-09T15:33:06.322Z,4.80
2023-05-09T15:35:33.981Z,4.22
2023-05-09T15:38:01.789Z,4.13
2023-05-09T15:40:33.300Z,5.22
2023-05-09T15:43:07.979Z,4.25
2023-05-09T15:45:38.963Z,4.28
2023-05-09T15:48:09.225Z,2.80
2023-05-09T15:50:36.849Z,3.00
2023-05-09T15:53:07.385Z,2.95
2023-05-09T15:55:35.058Z,2.90
2023-05-09T15:58:09.262Z,3.30
2023-05-09T16:00:38.717Z,3.00
2023-05-09T16:03:06.617Z,3.20
2023-05-09T16:05:34.410Z,2.63
2023-05-09T16:08:02.161Z,3.00
2023-05-09T16:10:29.733Z,3.28
2023-05-09T16:12:57.327Z,2.95
2023-05-09T16:15:24.855Z,3.47
2023-05-09T16:17:53.762Z,2.75
2023-05-09T16:20:21.487Z,3.15
2023-05-09T16:22:49.275Z,3.03
2023-05-09T16:25:17.393Z,3.08
2023-05-09T16:27:45.093Z,3.30
2023-05-09T16:30:17.478Z,3.15
2023-05-09T16:32:45.379Z,3.40
2023-05-09T16:35:14.866Z,3.10
2023-05-09T16:37:42.864Z,2.60
2023-05-09T16:40:11.809Z,2.63
2023-05-09T16:42:41.514Z,2.60
2023-05-09T16:45:11.785Z,2.63
2023-05-09T16:47:40.903Z,2.80
2023-05-09T16:50:10.497Z,2.80
2023-05-09T16:52:39.589Z,2.47
2023-05-09T16:55:07.691Z,2.10
2023-05-09T16:57:36.152Z,3.22
2023-05-09T17:00:04.160Z,2.20
2023-05-09T17:02:32.122Z,2.55
2023-05-09T17:04:59.684Z,2.20
2023-05-09T17:07:27.962Z,2.78
2023-05-09T17:09:56.966Z,4.60
2023-05-09T17:12:30.190Z,5.40
2023-05-09T17:14:57.667Z,3.65
2023-05-09T17:17:25.829Z,4.40
2023-05-09T17:20:01.464Z,4.35
2023-05-09T17:22:29.766Z,4.50
2023-05-09T17:24:59.300Z,5.40
2023-05-09T17:27:27.285Z,5.18
2023-05-09T17:29:57.327Z,5.60
2023-05-09T17:32:28.005Z,5.88
2023-05-09T17:34:58.988Z,5.50
2023-05-09T17:37:51.229Z,7.75
2023-05-09T17:40:33.257Z,4.78
2023-05-09T17:43:09.269Z,5.45
2023-05-09T17:45:51.487Z,4.88
2023-05-09T17:48:33.122Z,4.70
2023-05-09T17:51:10.285Z,5.20
2023-05-09T17:53:41.539Z,6.22
2023-05-09T17:56:11.219Z,4.80
2023-05-09T17:58:41.717Z,5.65
2023-05-09T18:01:20.492Z,4.80
2023-05-09T18:03:48.778Z,4.95
2023-05-09T18:06:16.471Z,5.38
2023-05-09T18:08:55.965Z,5.85
2023-05-09T18:11:26.305Z,4.93
2023-05-09T18:13:57.037Z,7.82
2023-05-09T18:16:27.491Z,5.53
2023-05-09T18:19:00.284Z,5.15
2023-05-09T18:21:36.044Z,5.93
2023-05-09T18:24:09.728Z,6.20
2023-05-09T18:26:41.626Z,6.97
2023-05-09T18:29:19.712Z,6.78
2023-05-09T18:31:48.065Z,6.78
2023-05-09T18:34:22.079Z,7.32
2023-05-09T18:36:59.156Z,6.65
2023-05-09T18:39:31.887Z,6.47
2023-05-09T18:42:22.465Z,6.70
2023-05-09T18:44:54.170Z,5.90
2023-05-09T18:47:24.486Z,6.55
2023-05-09T18:49:57.091Z,6.28
2023-05-09T18:52:28.084Z,5.90
2023-05-09T18:54:56.208Z,5.60
2023-05-09T18:57:37.609Z,5.50
2023-05-09T19:00:16.293Z,5.72
2023-05-09T19:03:00.104Z,7.15
2023-05-09T19:05:34.752Z,6.43
2023-05-09T19:08:20.573Z,5.97
2023-05-09T19:10:49.124Z,6.10
2023-05-09T19:13:20.867Z,4.88
2023-05-09T19:15:49.711Z,5.10
2023-05-09T19:18:20.063Z,5.10
2023-05-09T19:20:53.427Z,5.40
2023-05-09T19:23:22.032Z,4.85
2023-05-09T19:26:09.620Z,5.82
2023-05-09T19:28:56.574Z,5.90
2023-05-09T19:31:26.035Z,7.65
2023-05-09T19:34:36.080Z,7.15
2023-05-09T19:44:16.761Z,6.60
2023-05-09T19:47:16.305Z,6.10
2023-05-09T19:53:47.176Z,7.07
2023-05-09T19:56:14.788Z,6.45
2023-05-09T19:58:49.582Z,6.13
2023-05-09T20:01:22.613Z,6.43
2023-05-09T20:03:54.459Z,6.45
2023-05-09T20:06:28.808Z,7.18
2023-05-09T20:08:56.323Z,7.05
2023-05-09T20:11:23.936Z,6.90
2023-05-09T20:13:57.720Z,7.22
2023-05-09T20:16:27.303Z,7.40
2023-05-09T20:18:55.627Z,7.25
2023-05-09T20:21:27.063Z,7.50
2023-05-09T20:23:54.789Z,7.00
2023-05-09T20:26:24.521Z,6.25
2023-05-09T20:29:01.264Z,6.43
2023-05-09T20:31:29.171Z,6.68
2023-05-09T20:33:57.494Z,6.30
2023-05-09T20:36:26.679Z,5.43
2023-05-09T20:38:54.231Z,5.93
2023-05-09T20:41:22.360Z,5.32
2023-05-09T20:43:49.906Z,5.65
2023-05-09T20:46:17.694Z,5.55
2023-05-09T20:48:46.588Z,4.20
2023-05-09T20:51:14.511Z,5.20
2023-05-09T20:53:43.634Z,4.90
2023-05-09T20:56:11.353Z,4.90
2023-05-09T20:58:39.218Z,4.60
2023-05-09T21:01:06.801Z,4.53
2023-05-09T21:03:36.555Z,4.80
2023-05-09T21:06:04.200Z,4.70
2023-05-09T21:08:31.740Z,4.32
2023-05-09T21:11:00.666Z,4.50
2023-05-09T21:13:30.656Z,4.80
2023-05-09T21:15:58.160Z,4.43
2023-05-09T21:18:26.291Z,4.63
2023-05-09T21:20:54.249Z,4.50
2023-05-09T21:23:22.057Z,4.75
2023-05-09T21:25:49.643Z,4.40
2023-05-09T21:28:21.053Z,4.90
2023-05-09T21:30:54.542Z,4.13
2023-05-09T21:33:22.073Z,4.25
2023-05-09T21:35:49.635Z,3.90
2023-05-09T21:38:17.117Z,3.70
2023-05-09T21:40:44.665Z,3.63
2023-05-09T21:43:12.395Z,3.88
2023-05-09T21:45:41.360Z,3.70
2023-05-09T21:48:10.124Z,3.60
2023-05-09T21:50:38.692Z,3.10
2023-05-09T21:53:06.735Z,2.95
2023-05-09T21:55:34.773Z,3.20
2023-05-09T21:58:02.306Z,2.95
2023-05-09T22:00:30.827Z,2.78
2023-05-09T22:03:01.199Z,2.90
2023-05-09T22:05:29.042Z,2.65
2023-05-09T22:07:56.620Z,2.80
2023-05-09T22:10:24.164Z,3.08
2023-05-09T22:12:51.892Z,2.80
2023-05-09T22:15:21.476Z,3.10
2023-05-09T22:17:49.051Z,3.00
2023-05-09T22:20:21.361Z,3.00
2023-05-09T22:22:51.715Z,3.08
2023-05-09T22:25:19.532Z,3.17
2023-05-09T22:27:48.256Z,3.20
2023-05-09T22:30:16.182Z,2.72
2023-05-09T22:32:46.419Z,3.28
2023-05-09T22:35:16.453Z,3.35
2023-05-09T22:37:47.631Z,3.50
2023-05-09T22:40:17.864Z,2.83
2023-05-09T22:42:46.640Z,3.15
2023-05-09T22:45:15.379Z,3.00
2023-05-09T22:47:46.194Z,2.95
2023-05-09T22:50:18.080Z,3.20
2023-05-09T22:52:47.408Z,3.42
2023-05-09T22:55:15.054Z,2.50
2023-05-09T22:57:42.551Z,2.92
2023-05-09T23:00:12.015Z,3.40
2023-05-09T23:02:40.269Z,2.88
2023-05-09T23:05:09.024Z,3.22
2023-05-09T23:07:36.555Z,3.17
2023-05-09T23:10:05.845Z,3.25
2023-05-09T23:12:33.306Z,3.95
2023-05-09T23:15:00.793Z,3.10
2023-05-09T23:17:28.720Z,3.30
2023-05-09T23:20:00.636Z,3.15
2023-05-09T23:22:28.144Z,3.13
2023-05-09T23:24:55.909Z,2.85
2023-05-09T23:27:24.830Z,3.10
2023-05-09T23:29:52.371Z,2.40
2023-05-09T23:32:19.938Z,2.50
2023-05-09T23:34:47.536Z,3.15
2023-05-09T23:37:15.066Z,2.97
2023-05-09T23:39:42.581Z,3.15
2023-05-09T23:42:10.133Z,2.58
2023-05-09T23:44:39.287Z,2.78
2023-05-09T23:47:06.854Z,2.58
2023-05-09T23:49:34.392Z,2.95
2023-05-09T23:52:02.096Z,2.70
2023-05-09T23:54:29.640Z,3.30
2023-05-09T23:56:58.070Z,2.92
2023-05-09T23:59:25.609Z,3.05
